SCELSCTE

Guest
Details From SCEL - Arturo Merino Benitez Intl
To SCTE - El Tepual Intl
Flight Number -
Tags Generated
Created
Modified
Stats Distance 496 nm / 918 km
Max Altitude 0 ft / 0 m
Waypoints 3
Social Downloads 5
Likes 0
Share VATSIM

Download

Looking for another format? Having issues loading an existing format? Contact us
Advertisement - Login to hide

Notes

Generated

Route

SCEL RW17 SCTE

ID Type Via Altitude Latitude Longitude Leg Dist Tot Dist Heading (true) Name
O SCEL APT - 0 ft / 0 m -33.37608˚ -70.78671˚ - 0 nm - -
RW17 FIX - 0 ft / 0 m -41.42694˚ -73.09353˚ 495 nm 495 nm 192° / 194° -
O SCTE APT - 0 ft / 0 m -41.42697˚ -73.09353˚ 0 nm 495 nm 179° / 179° -

Altitude Profile

Advertisement - Login to hide

Weather


0- 5 10 15 20 25 30 35+ Temperature / ° C

Clouds and Precipitation
Forecast for 2018-05-20 18:00 UTC. Updated 4 hours ago

Ground ~20,000 ft ~40,000 ft Winds

SCEL

Details ICAO SCEL (SCL)
Name Arturo Merino Benitez Intl
Region Chile
Timezone America/Santiago (UTC-4.0)
Stats Elevation 1,550 ft / 472 m (AMSL)
Location -33.389775° -70.794366°
Runways 2
Magnetic Variation 1.735° E

METAR

SCEL 202100Z 22010KT 9999 BKN180 23/M08 Q1015 NOSIG

Decode

TAF

TAF SCEL 201627Z 2018/2118 18010KT CAVOK TX25/2019Z TN03/2111Z BECMG 2101/2103 16004KT BKN160 BECMG 2104/2106 VRB02KT BECMG 2108/2110 7000 NSC BECMG 2114/2116 16007KT CAVOK

Decode

Departure Runways

ID Width Length Bearing (true) Bearing (mag) Surface Threshold Offset Overrun Length
17L 180 ft / 55 m 10,523 ft / 3,207 m 177.43° 175.70° Asphalt 0 ft / 0 m 0 ft / 0 m
17R 148 ft / 45 m 12,504 ft / 3,811 m 177.44° 175.71° Asphalt 0 ft / 0 m 0 ft / 0 m
35L 148 ft / 45 m 12,504 ft / 3,811 m 357.44° 355.71° Asphalt 0 ft / 0 m 0 ft / 0 m
35R 180 ft / 55 m 10,523 ft / 3,207 m 357.43° 355.70° Asphalt 1,800 ft / 549 m 0 ft / 0 m

SCTE

Details ICAO SCTE (PMC)
Name El Tepual
Region Chile
Timezone America/Santiago (UTC-4.0)
Stats Elevation 293 ft / 89 m (AMSL)
Location -41.438884° -73.093954°
Runways 1
Magnetic Variation 8.438° E

METAR

SCTE 202100Z 15005KT 9999 FEW060 11/06 Q1023 NOSIG

Decode

TAF

TAF SCTE 201643Z 2018/2118 19005KT 9999 SCT030 TX13/2019Z TN04/2110Z BECMG 2102/2104 VRB02KT 0500 FG OVC001 TEMPO 2104/2112 1500 DZBR OVC003 BECMG 2112/2114 9999 NSW BKN030

Decode

Destination Runways

ID Width Length Bearing (true) Bearing (mag) Surface Threshold Offset Overrun Length
17 148 ft / 45 m 8,702 ft / 2,652 m 172.00° 163.56° Concrete 0 ft / 0 m 0 ft / 0 m
35 148 ft / 45 m 8,702 ft / 2,652 m 352.00° 343.56° Concrete 0 ft / 0 m 0 ft / 0 m

Approach Navaids

Runway Type Ident Frequency Range Bearing (true) Bearing (mag) Slope Elevation
35 Localiser IMON 110.10 MHz 18 nm / 33 km 351.94° 343.51° - 293 ft / 89 m (AMSL)
35 Glidescope IMON 110.10 MHz 10 nm / 19 km 352.00° 343.56° 3.00° 293 ft / 89 m (AMSL)
35 DME IMON 115.70 MHz 18 nm / 33 km - - - 293 ft / 89 m (AMSL)

Popular Alternatives